Meteo Giornale » Osservazioni meteo Russia » Tolmachevo
ore: 04:30 - Osservazioni Meteo Tolmachevo
Lat. 55° 1' N Lon. 82° 38' E Alt. 111 metri s.l.m.
6 °C
Sereno
Temp. 24 Ore
6 °C
15 °C
Sud/Sud-Ovest
18 Km/h
Dew point 2 °C
Umidità 75 %
Visibilità 10 Km
Il sole sorge alle ore 06:35
Il sole tramonta alle ore 20:23
| Data e Ora | Cielo e Fenomeni | T °C | DP °C | Um. % | Pres. hPa | Vis. km | Vento km/h | |
|---|---|---|---|---|---|---|---|---|
| Oggi h: 04:30 | Sereno | 6 | 2 | 75 | 1012 | 10 | S/SO 18 | |
| Oggi h: 04:00 | Sereno | 6 | 2 | 75 | 1012 | 10 | S/SO 18 | |
| Oggi h: 03:30 | Sereno | 6 | 1 | 70 | 1012 | 10 | S/SO 18 | |
| Oggi h: 03:00 | Sereno | 7 | 2 | 70 | 1012 | 10 | SO 18 | |
| Oggi h: 02:30 | Sereno | 7 | 2 | 70 | 1012 | 10 | SO 18 | |
| Oggi h: 02:00 | Sereno | 7 | 2 | 70 | 1012 | 10 | S/SO 18 | |
| Oggi h: 01:30 | Sereno | 7 | 1 | 65 | 1012 | 10 | S/SO 14.4 | |
| Oggi h: 01:00 | Sereno | 6 | 2 | 75 | 1012 | 10 | S/SO 10.8 | |
| Oggi h: 00:30 | Sereno | 7 | 2 | 70 | 1012 | 10 | SO 14.4 | |
| Oggi h: 00:00 | Sereno | 7 | 2 | 70 | 1012 | 10 | S/SO 10.8 | |
| Ieri h: 23:30 | Sereno | 8 | 2 | 65 | 1012 | 10 | SO 10.8 | |
| Ieri h: 23:00 | Sereno | 8 | 2 | 65 | 1012 | 10 | O/SO 10.8 | |
| Ieri h: 22:30 | Sereno | 7 | 2 | 70 | 1012 | 10 | N 7.2 | |
| Ieri h: 22:00 | Sereno | 7 | 2 | 70 | 1011 | 10 | N 7.2 | |
| Ieri h: 21:30 | Sereno | 7 | 2 | 70 | 1011 | 10 | N 3.6 | |
| Ieri h: 21:00 | Sereno | 8 | 2 | 65 | 1011 | 10 | N 7.2 | |
| Ieri h: 20:30 | Sereno | 9 | 2 | 61 | 1010 | 10 | NO 10.8 | |
| Ieri h: 20:00 | Sereno | 11 | 2 | 53 | 1010 | 10 | NO 10.8 | |
| Ieri h: 19:30 | Sereno | 12 | 1 | 46 | 1010 | 10 | O/NO 14.4 | |
| Ieri h: 19:00 | Sereno | 12 | 1 | 46 | 1010 | 10 | O/NO 18 | |
| Ieri h: 18:30 | Sereno | 14 | 1 | 41 | 1010 | 10 | O/SO 21.6 | |
| Ieri h: 18:00 | Sereno | 13 | 1 | 43 | 1010 | 10 | O 21.6 | |
| Ieri h: 17:30 | Sereno | 15 | 2 | 41 | 1010 | 10 | O/SO 25.2 | |
| Ieri h: 17:00 | Molto Nuvoloso | 14 | 2 | 44 | 1010 | 10 | O/NO 21.6 | |
| Ieri h: 16:30 | Molto Nuvoloso | 13 | 1 | 43 | 1010 | 10 | O 21.6 | |
| Ieri h: 16:00 | Molto Nuvoloso | 13 | 1 | 43 | 1010 | 10 | O/NO 21.6 | |
| Ieri h: 15:30 | Molto Nuvoloso | 14 | 1 | 41 | 1010 | 10 | O 21.6 | |
| Ieri h: 15:00 | Molto Nuvoloso | 14 | 1 | 41 | 1010 | 10 | O 25.2 | |
| Ieri h: 14:30 | Molto Nuvoloso | 13 | 1 | 43 | 1010 | 10 | O 25.2 | |
| Ieri h: 14:00 | Molto Nuvoloso | 14 | 1 | 41 | 1010 | 10 | O 21.6 | |
| Ieri h: 13:30 | Molto Nuvoloso | 14 | 2 | 44 | 1010 | 10 | O/NO 21.6 | |
| Ieri h: 13:00 | Molto Nuvoloso | 14 | 1 | 41 | 1010 | 10 | O 25.2 | |
| Ieri h: 12:30 | Molto Nuvoloso | 13 | 3 | 50 | 1010 | 10 | O 25.2 | |
| Ieri h: 12:11 | Molto Nuvoloso | 13 | 3 | 50 | 1010 | 10 | O 25.2 | |
| Ieri h: 12:00 | Molto Nuvoloso | 13 | 3 | 50 | 1010 | 10 | O 28.8 | |
| Ieri h: 11:30 | Molto Nuvoloso | 12 | 5 | 62 | 1010 | 10 | O/NO 21.6 | |
| Ieri h: 11:00 | Molto Nuvoloso | 12 | 6 | 66 | 1009 | 10 | O/NO 21.6 | |
| Ieri h: 10:30 | Molto Nuvoloso | 11 | 6 | 71 | 1009 | 10 | O/NO 18 | |
| Ieri h: 10:00 | Nuvoloso | 11 | 7 | 76 | 1009 | 10 | O 14.4 | |
| Ieri h: 09:30 | Nuvoloso | 10 | 8 | 87 | 1009 | 10 | O/NO 18 | |
| Ieri h: 09:00 | Nuvoloso | 9 | 9 | 100 | 1008 | 10 | O 14.4 | |
| Ieri h: 08:30 | Nuvoloso | 9 | 9 | 100 | 1008 | 10 | O 10.8 | |
| Ieri h: 08:00 | Molto Nuvoloso | 9 | 9 | 100 | 1008 | 10 | O/NO 10.8 | |
| Ieri h: 07:30 | Molto Nuvoloso | 9 | 9 | 100 | 1008 | 10 | O/NO 10.8 | |
| Ieri h: 07:00 | Pioggia | 9 | 9 | 100 | 1008 | 10 | O 10.8 | |
| Ieri h: 06:30 | Pioggia | 10 | 9 | 93 | 1007 | 9 | O/NO 14.4 | |
| Ieri h: 06:00 | Sereno | 11 | 8 | 81 | 1007 | 10 | O/NO 18 | |
| Ieri h: 05:30 | Sereno | 10 | 7 | 81 | 1007 | 10 | O 18 | |
| Ieri h: 05:00 | Sereno | 11 | 8 | 81 | 1007 | 10 | SO 10.8 | |



